createdAt,value
2018-09-01T00:00:00.579Z,17.70
2018-09-01T00:02:28.290Z,17.90
2018-09-01T00:04:55.857Z,17.50
2018-09-01T00:07:23.440Z,17.70
2018-09-01T00:09:51.090Z,18.00
2018-09-01T00:12:18.677Z,17.70
2018-09-01T00:14:46.326Z,17.70
2018-09-01T00:17:19.568Z,17.70
2018-09-01T00:19:47.192Z,17.80
2018-09-01T00:22:14.870Z,17.40
2018-09-01T00:24:42.538Z,17.50
2018-09-01T00:27:10.327Z,17.40
2018-09-01T00:29:38.018Z,17.00
2018-09-01T00:32:05.662Z,17.50
2018-09-01T00:34:33.305Z,17.30
2018-09-01T00:37:00.914Z,17.40
2018-09-01T00:39:28.544Z,17.00
2018-09-01T00:41:56.119Z,17.20
2018-09-01T00:44:23.770Z,17.10
2018-09-01T00:46:51.322Z,17.30
2018-09-01T00:49:18.990Z,17.00
2018-09-01T00:51:46.611Z,16.90
2018-09-01T00:54:14.242Z,17.00
2018-09-01T00:56:41.856Z,17.10
2018-09-01T00:59:09.562Z,16.90
2018-09-01T01:01:37.164Z,16.90
2018-09-01T01:04:04.862Z,16.80
2018-09-01T01:06:32.547Z,16.80
2018-09-01T01:09:00.274Z,16.80
2018-09-01T01:11:27.882Z,16.80
2018-09-01T01:13:55.535Z,16.70
2018-09-01T01:16:23.111Z,16.50
2018-09-01T01:18:50.720Z,16.80
2018-09-01T01:21:18.425Z,16.90
2018-09-01T01:23:46.183Z,16.70
2018-09-01T01:26:13.815Z,16.80
2018-09-01T01:28:41.406Z,16.80
2018-09-01T01:31:09.042Z,16.90
2018-09-01T01:33:37.054Z,16.70
2018-09-01T01:36:04.739Z,16.70
2018-09-01T01:38:32.360Z,16.90
2018-09-01T01:41:00.014Z,16.60
2018-09-01T01:43:27.650Z,16.70
2018-09-01T01:45:55.211Z,16.60
2018-09-01T01:48:22.819Z,16.80
2018-09-01T01:50:50.446Z,16.50
2018-09-01T01:53:18.055Z,16.50
2018-09-01T01:55:45.651Z,16.50
2018-09-01T01:58:13.266Z,16.30
2018-09-01T02:00:40.852Z,16.70
2018-09-01T02:03:08.455Z,16.50
2018-09-01T02:05:36.154Z,16.60
2018-09-01T02:08:04.141Z,16.70
2018-09-01T02:10:31.735Z,16.70
2018-09-01T02:12:59.337Z,16.50
2018-09-01T02:15:27.010Z,16.70
2018-09-01T02:17:54.691Z,16.50
2018-09-01T02:20:22.294Z,15.80
2018-09-01T02:22:49.918Z,16.30
2018-09-01T02:25:17.711Z,16.40
2018-09-01T02:27:45.294Z,16.10
2018-09-01T02:30:12.935Z,16.10
2018-09-01T02:32:40.534Z,16.00
2018-09-01T02:35:08.102Z,15.90
2018-09-01T02:37:35.814Z,15.90
2018-09-01T02:40:03.574Z,16.00
2018-09-01T02:42:31.155Z,16.00
2018-09-01T02:44:58.801Z,15.80
2018-09-01T02:47:26.395Z,15.90
2018-09-01T02:49:54.101Z,15.80
2018-09-01T02:52:21.877Z,16.00
2018-09-01T02:54:49.523Z,15.90
2018-09-01T02:57:17.210Z,16.00
2018-09-01T02:59:44.808Z,16.00
2018-09-01T03:02:16.990Z,15.90
2018-09-01T03:04:44.655Z,15.70
2018-09-01T03:07:12.266Z,15.30
2018-09-01T03:09:39.950Z,15.50
2018-09-01T03:12:07.575Z,15.40
2018-09-01T03:14:35.178Z,15.20
2018-09-01T03:17:02.802Z,15.30
2018-09-01T03:19:30.462Z,15.20
2018-09-01T03:21:58.187Z,15.00
2018-09-01T03:24:25.846Z,15.00
2018-09-01T03:26:53.450Z,14.90
2018-09-01T03:29:21.062Z,14.90
2018-09-01T03:31:48.664Z,14.90
2018-09-01T03:34:16.240Z,14.90
2018-09-01T03:36:43.871Z,14.90
2018-09-01T03:39:11.407Z,15.10
2018-09-01T03:41:39.359Z,14.80
2018-09-01T03:44:07.091Z,14.80
2018-09-01T03:46:34.836Z,14.90
2018-09-01T03:49:03.932Z,15.00
2018-09-01T03:51:31.584Z,15.00
2018-09-01T03:53:59.242Z,14.70
2018-09-01T03:56:26.869Z,14.90
2018-09-01T03:58:54.578Z,15.00
2018-09-01T04:01:22.251Z,14.80
2018-09-01T04:03:49.918Z,14.70
2018-09-01T04:06:17.529Z,14.70
2018-09-01T04:08:45.186Z,14.80
2018-09-01T04:11:12.835Z,14.80
2018-09-01T04:13:40.464Z,14.70
2018-09-01T04:16:08.080Z,14.70
2018-09-01T04:18:35.694Z,14.70
2018-09-01T04:21:03.463Z,14.90
2018-09-01T04:23:31.114Z,14.70
2018-09-01T04:25:58.775Z,14.80
2018-09-01T04:28:26.450Z,14.60
2018-09-01T04:30:54.224Z,14.70
2018-09-01T04:33:21.867Z,14.60
2018-09-01T04:35:49.464Z,14.80
2018-09-01T04:38:17.091Z,14.60
2018-09-01T04:40:45.041Z,14.70
2018-09-01T04:43:12.743Z,14.70
2018-09-01T04:45:40.903Z,14.70
2018-09-01T04:48:08.563Z,14.60
2018-09-01T04:50:36.159Z,14.70
2018-09-01T04:53:03.878Z,14.60
2018-09-01T04:55:31.506Z,14.90
2018-09-01T04:57:59.200Z,14.70
2018-09-01T05:00:26.818Z,14.80
2018-09-01T05:02:54.527Z,14.70
2018-09-01T05:05:22.163Z,14.90
2018-09-01T05:07:49.752Z,14.70
2018-09-01T05:10:18.257Z,14.70
2018-09-01T05:12:46.231Z,14.70
2018-09-01T05:15:13.822Z,14.80
2018-09-01T05:17:41.478Z,14.90
2018-09-01T05:20:09.244Z,14.90
2018-09-01T05:22:37.050Z,14.80
2018-09-01T05:25:05.397Z,15.10
2018-09-01T05:27:33.110Z,14.90
2018-09-01T05:30:00.776Z,15.10
2018-09-01T05:32:28.399Z,15.00
2018-09-01T05:34:56.050Z,15.40
2018-09-01T05:37:23.710Z,15.00
2018-09-01T05:39:51.301Z,15.20
2018-09-01T05:42:18.975Z,15.20
2018-09-01T05:44:46.524Z,15.20
2018-09-01T05:47:14.213Z,15.20
2018-09-01T05:49:41.809Z,15.30
2018-09-01T05:52:09.490Z,15.10
2018-09-01T05:54:37.117Z,15.40
2018-09-01T05:57:04.727Z,15.30
2018-09-01T05:59:32.295Z,15.30
2018-09-01T06:01:59.901Z,14.80
2018-09-01T06:04:27.531Z,15.40
2018-09-01T06:06:55.292Z,15.40
2018-09-01T06:09:22.906Z,15.80
2018-09-01T06:11:50.577Z,15.60
2018-09-01T06:14:18.227Z,15.70
2018-09-01T06:16:45.910Z,15.70
2018-09-01T06:19:13.705Z,15.90
2018-09-01T06:21:41.343Z,16.00
2018-09-01T06:24:08.923Z,16.10
2018-09-01T06:26:36.652Z,16.20
2018-09-01T06:29:08.632Z,16.40
2018-09-01T06:31:36.882Z,16.60
2018-09-01T06:34:04.592Z,16.70
2018-09-01T06:36:32.319Z,17.00
2018-09-01T06:38:59.966Z,16.90
2018-09-01T06:41:27.558Z,17.70
2018-09-01T06:43:55.211Z,18.90
2018-09-01T06:46:22.798Z,19.90
2018-09-01T06:48:50.678Z,20.80
2018-09-01T06:51:18.322Z,21.40
2018-09-01T06:53:46.019Z,21.80
2018-09-01T06:56:13.703Z,22.10
2018-09-01T06:58:41.394Z,22.70
2018-09-01T07:01:09.014Z,23.10
2018-09-01T07:03:36.659Z,23.40
2018-09-01T07:06:04.283Z,23.70
2018-09-01T07:08:31.918Z,24.00
2018-09-01T07:10:59.538Z,24.30
2018-09-01T07:13:27.241Z,24.40
2018-09-01T07:15:54.861Z,24.60
2018-09-01T07:18:22.541Z,24.90
2018-09-01T07:20:50.190Z,25.40
2018-09-01T07:23:17.806Z,25.80
2018-09-01T07:25:45.442Z,26.10
2018-09-01T07:28:13.085Z,26.20
2018-09-01T07:30:40.841Z,26.20
2018-09-01T07:33:08.578Z,26.20
2018-09-01T07:35:36.122Z,26.40
2018-09-01T07:38:04.357Z,26.90
2018-09-01T07:40:31.951Z,27.10
2018-09-01T07:42:59.598Z,27.20
2018-09-01T07:45:27.231Z,27.70
2018-09-01T07:47:54.871Z,27.90
2018-09-01T07:50:22.551Z,28.10
2018-09-01T07:52:50.142Z,28.20
2018-09-01T07:55:17.747Z,28.30
2018-09-01T07:57:45.444Z,28.50
2018-09-01T08:00:13.087Z,28.60
2018-09-01T08:02:40.705Z,28.50
2018-09-01T08:05:08.543Z,28.60
2018-09-01T08:07:38.028Z,29.50
2018-09-01T08:10:06.338Z,29.70
2018-09-01T08:12:34.008Z,29.90
2018-09-01T08:15:01.731Z,30.20
2018-09-01T08:17:29.360Z,30.30
2018-09-01T08:19:56.946Z,30.30
2018-09-01T08:22:24.795Z,30.70
2018-09-01T08:24:52.551Z,31.30
2018-09-01T08:27:20.182Z,31.40
2018-09-01T08:29:47.927Z,31.40
2018-09-01T08:32:15.618Z,31.40
2018-09-01T08:34:43.326Z,31.20
2018-09-01T08:37:10.951Z,31.10
2018-09-01T08:39:38.590Z,30.90
2018-09-01T08:42:06.295Z,31.00
2018-09-01T08:44:33.956Z,31.40
2018-09-01T08:47:01.831Z,31.60
2018-09-01T08:49:29.478Z,32.10
2018-09-01T08:51:57.167Z,32.30
2018-09-01T08:54:24.801Z,32.40
2018-09-01T08:56:52.579Z,31.80
2018-09-01T08:59:20.223Z,31.50
2018-09-01T09:01:48.023Z,31.00
2018-09-01T09:04:15.689Z,30.70
2018-09-01T09:06:43.366Z,30.30
2018-09-01T09:09:10.998Z,29.70
2018-09-01T09:11:38.689Z,29.30
2018-09-01T09:14:06.292Z,28.80
2018-09-01T09:16:34.562Z,27.90
2018-09-01T09:19:02.451Z,26.90
2018-09-01T09:21:30.206Z,26.00
2018-09-01T09:23:57.862Z,25.60
2018-09-01T09:26:25.668Z,25.30
2018-09-01T09:28:54.348Z,24.70
2018-09-01T09:31:21.951Z,24.10
2018-09-01T09:33:49.659Z,23.70
2018-09-01T09:36:17.326Z,23.30
2018-09-01T09:38:44.939Z,23.50
2018-09-01T09:41:12.615Z,23.50
2018-09-01T09:43:40.274Z,23.30
2018-09-01T09:46:07.926Z,23.20
2018-09-01T09:48:35.599Z,23.60
2018-09-01T09:51:03.262Z,24.20
2018-09-01T09:53:30.894Z,24.50
2018-09-01T09:56:02.338Z,24.70
2018-09-01T09:58:30.122Z,24.90
2018-09-01T10:01:03.283Z,25.20
2018-09-01T10:03:30.839Z,25.30
2018-09-01T10:05:59.015Z,25.50
2018-09-01T10:08:26.639Z,25.70
2018-09-01T10:10:54.241Z,25.80
2018-09-01T10:13:22.012Z,25.90
2018-09-01T10:15:49.770Z,26.10
2018-09-01T10:18:17.475Z,25.90
2018-09-01T10:20:45.177Z,25.30
2018-09-01T10:23:15.878Z,24.90
2018-09-01T10:25:43.675Z,24.50
2018-09-01T10:28:11.326Z,24.50
2018-09-01T10:30:38.932Z,24.70
2018-09-01T10:33:09.775Z,24.70
2018-09-01T10:35:37.489Z,24.40
2018-09-01T10:38:05.195Z,24.00
2018-09-01T10:40:32.834Z,23.80
2018-09-01T10:43:00.458Z,23.50
2018-09-01T10:45:28.154Z,23.40
2018-09-01T10:47:55.808Z,23.40
2018-09-01T10:50:23.816Z,23.30
2018-09-01T10:52:51.422Z,23.40
2018-09-01T10:55:19.048Z,23.70
2018-09-01T10:57:46.646Z,24.20
2018-09-01T11:00:17.398Z,24.40
2018-09-01T11:02:45.110Z,24.70
2018-09-01T11:05:12.720Z,25.10
2018-09-01T11:07:40.422Z,25.50
2018-09-01T11:10:08.099Z,25.80
2018-09-01T11:12:35.813Z,26.00
2018-09-01T11:15:03.490Z,26.10
2018-09-01T11:17:31.220Z,26.30
2018-09-01T11:19:58.937Z,26.50
2018-09-01T11:22:26.683Z,26.60
2018-09-01T11:24:54.679Z,26.80
2018-09-01T11:27:23.234Z,26.70
2018-09-01T11:29:50.955Z,26.70
2018-09-01T11:32:18.606Z,26.80
2018-09-01T11:34:46.240Z,27.00
2018-09-01T11:37:13.867Z,26.90
2018-09-01T11:39:41.487Z,26.70
2018-09-01T11:42:09.187Z,26.80
2018-09-01T11:44:37.131Z,26.80
2018-09-01T11:47:04.934Z,26.90
2018-09-01T11:49:32.567Z,26.90
2018-09-01T11:52:00.262Z,26.50
2018-09-01T11:54:27.858Z,26.00
2018-09-01T11:56:55.449Z,25.30
2018-09-01T11:59:23.235Z,25.10
2018-09-01T12:01:51.123Z,25.40
2018-09-01T12:04:18.762Z,25.30
2018-09-01T12:06:47.083Z,25.30
2018-09-01T12:09:14.849Z,25.60
2018-09-01T12:11:42.465Z,25.80
2018-09-01T12:14:10.118Z,26.20
2018-09-01T12:16:37.726Z,26.40
2018-09-01T12:19:05.464Z,26.50
2018-09-01T12:21:33.110Z,26.50
2018-09-01T12:24:00.746Z,26.40
2018-09-01T12:26:28.408Z,26.20
2018-09-01T12:28:56.329Z,26.30
2018-09-01T12:31:24.019Z,26.50
2018-09-01T12:33:51.637Z,26.50
2018-09-01T12:36:19.731Z,26.30
2018-09-01T12:38:47.366Z,26.30
2018-09-01T12:41:15.079Z,26.20
2018-09-01T12:43:42.804Z,25.60
2018-09-01T12:46:10.354Z,25.50
2018-09-01T12:48:38.409Z,25.80
2018-09-01T12:51:06.086Z,26.00
2018-09-01T12:53:33.747Z,26.30
2018-09-01T12:56:01.463Z,26.50
2018-09-01T12:58:29.136Z,26.70
2018-09-01T13:00:56.733Z,26.70
2018-09-01T13:03:24.352Z,26.40
2018-09-01T13:05:52.361Z,26.00
2018-09-01T13:08:20.481Z,25.50
2018-09-01T13:10:48.292Z,25.20
2018-09-01T13:13:15.966Z,25.10
2018-09-01T13:15:44.875Z,25.20
2018-09-01T13:18:12.543Z,25.40
2018-09-01T13:20:40.271Z,25.80
2018-09-01T13:23:08.003Z,25.90
2018-09-01T13:25:35.615Z,26.10
2018-09-01T13:28:03.283Z,26.20
2018-09-01T13:30:30.943Z,26.00
2018-09-01T13:32:58.590Z,25.80
2018-09-01T13:35:26.162Z,25.70
2018-09-01T13:37:54.522Z,25.40
2018-09-01T13:40:22.265Z,25.50
2018-09-01T13:42:50.019Z,25.50
2018-09-01T13:45:17.879Z,25.50
2018-09-01T13:47:45.804Z,25.40
2018-09-01T13:50:13.786Z,25.50
2018-09-01T13:52:41.429Z,25.40
2018-09-01T13:55:09.119Z,25.40
2018-09-01T13:57:36.739Z,25.50
2018-09-01T14:00:04.968Z,25.60
2018-09-01T14:02:32.654Z,25.40
2018-09-01T14:05:00.703Z,25.20
2018-09-01T14:07:28.407Z,25.00
2018-09-01T14:09:56.067Z,25.20
2018-09-01T14:12:23.795Z,25.20
2018-09-01T14:14:51.598Z,25.10
2018-09-01T14:17:19.212Z,25.20
2018-09-01T14:19:46.826Z,25.20
2018-09-01T14:22:14.471Z,25.20
2018-09-01T14:24:42.114Z,25.30
2018-09-01T14:27:09.746Z,25.20
2018-09-01T14:29:37.370Z,25.20
2018-09-01T14:32:04.961Z,25.10
2018-09-01T14:34:32.622Z,25.00
2018-09-01T14:37:00.277Z,24.90
2018-09-01T14:39:27.915Z,24.90
2018-09-01T14:41:57.942Z,25.00
2018-09-01T14:44:25.633Z,25.00
2018-09-01T14:46:53.327Z,25.10
2018-09-01T14:49:21.110Z,25.20
2018-09-01T14:51:52.248Z,25.10
2018-09-01T14:54:22.958Z,25.10
2018-09-01T14:56:50.623Z,25.30
2018-09-01T14:59:19.883Z,25.30
2018-09-01T15:01:48.337Z,25.20
2018-09-01T15:04:16.052Z,25.00
2018-09-01T15:06:45.294Z,25.00
2018-09-01T15:09:13.846Z,24.90
2018-09-01T15:11:41.675Z,24.80
2018-09-01T15:14:10.370Z,24.80
2018-09-01T15:16:38.328Z,24.90
2018-09-01T15:19:08.691Z,24.80
2018-09-01T15:21:36.378Z,24.70
2018-09-01T15:24:05.004Z,24.90
2018-09-01T15:26:32.624Z,24.90
2018-09-01T15:29:00.352Z,24.80
2018-09-01T15:31:28.071Z,24.70
2018-09-01T15:33:56.678Z,24.70
2018-09-01T15:36:27.976Z,24.60
2018-09-01T15:38:55.650Z,24.80
2018-09-01T15:41:23.370Z,24.70
2018-09-01T15:43:58.664Z,24.50
2018-09-01T15:46:32.020Z,24.50
2018-09-01T15:49:03.994Z,24.50
2018-09-01T15:51:31.682Z,24.60
